This is the latest recevied weather packets stored in our database for station/object W4CAT-13. If no packets are shown the sender has not sent any weather packets the latest 10 day(s).
| Time | Temp. | Humidity | Pressure | Rain* | Wind** | Luminosity | Snow |
|---|---|---|---|---|---|---|---|
| 1778052350 | 17.78° C | 92% | 970.2 hPa | 1.02 mm | - | - | - |
| 1778051420 | 18.33° C | 89% | 969.9 hPa | 0.51 mm | - | - | - |
| 1778050490 | 19.44° C | 83% | 969.5 hPa | 0.25 mm | - | - | - |
| 1778049560 | 20° C | 77% | 969.2 hPa | 0 mm | - | - | - |
| 1778048630 | 19.44° C | 79% | 969.5 hPa | 0 mm | - | - | - |
| 1778047700 | 19.44° C | 79% | 969.9 hPa | 0 mm | - | - | - |
| 1778046770 | 20° C | 74% | 970.2 hPa | 0 mm | - | - | - |
| 1778045840 | 20° C | 74% | 970.5 hPa | 0 mm | - | - | - |
| 1778044910 | 20° C | 75% | 970.6 hPa | 0 mm | - | - | - |
| 1778043980 | 19.44° C | 75% | 970.5 hPa | 0 mm | - | - | - |
| 1778043050 | 19.44° C | 76% | 970.4 hPa | 0 mm | - | - | - |
| 1778042120 | 18.89° C | 77% | 970.9 hPa | 0 mm | - | - | - |
| 1778041190 | 18.89° C | 79% | 970.9 hPa | 0 mm | - | - | - |
| 1778040260 | 18.33° C | 80% | 971 hPa | 0 mm | - | - | - |
| 1778039330 | 18.33° C | 82% | 971.2 hPa | 0 mm | - | - | - |
| 1778038400 | 17.78° C | 84% | 971 hPa | 0 mm | - | - | - |
| 1778037469 | 17.78° C | 85% | 971.6 hPa | 0 mm | - | - | - |
| 1778036539 | 16.67° C | 88% | 971.2 hPa | 0 mm | - | - | - |
| 1778035610 | 16.67° C | 89% | 971.2 hPa | 0 mm | - | - | - |
| 1778034680 | 16.67° C | 90% | 971.6 hPa | 0 mm | - | - | - |
| 1778033749 | 16.11° C | 92% | 971.6 hPa | 0 mm | - | - | - |
| 1778032850 | 15.56° C | 93% | 971.2 hPa | 0 mm | - | - | - |
| 1778031949 | 16.11° C | 92% | 971.5 hPa | 0 mm | - | - | - |
| 1778031049 | 16.11° C | 90% | 971.6 hPa | 0.51 mm | - | - | - |
| 1778030149 | 15.56° C | 91% | 971.6 hPa | 0.51 mm | - | - | - |
* Rain latest hour (hover to see other rain measurements)
** Current wind speed in m/s (hover to see current wind gust speed)